Time;durP1;ratioP1;P1;durP2;ratioP2;P2;SDS_P1;SDS_P2;PMS_P1;PMS_P2;Temp;Humidity;BMP_temperature;BMP_pressure;BME280_temperature;BME280_humidity;BME280_pressure;Samples;Min_cycle;Max_cycle;Signal;HPM_P1;HPM_P2
2021/12/23 00:01:30;;;;;;;49.17;23.60;;;2.80;71.90;;;;;;5112569;27;20191;-78
2021/12/23 00:03:58;;;;;;;46.80;22.87;;;2.70;71.90;;;;;;5120000;27;20188;-77
2021/12/23 00:06:27;;;;;;;44.83;22.70;;;2.70;71.90;;;;;;5116167;27;20213;-77
2021/12/23 00:08:57;;;;;;;50.27;22.33;;;2.70;72.00;;;;;;5115784;27;20223;-77
2021/12/23 00:11:25;;;;;;;47.50;20.67;;;2.70;71.90;;;;;;5125991;27;20196;-77
2021/12/23 00:14:02;;;;;;;37.67;19.40;;;2.70;71.90;;;;;;5116520;27;20200;-78
2021/12/23 00:16:43;;;;;;;40.67;19.60;;;2.70;71.80;;;;;;5105158;27;20188;-78
2021/12/23 00:19:35;;;;;;;35.60;17.53;;;2.80;71.80;;;;;;5104378;27;20760;-78
2021/12/23 00:24:51;;;;;;;28.97;14.77;;;2.70;71.10;;;;;;5112849;27;20189;-77
2021/12/23 00:27:20;;;;;;;28.17;14.03;;;2.80;71.00;;;;;;5104704;27;20312;-78
2021/12/23 00:29:48;;;;;;;26.23;13.33;;;2.80;70.90;;;;;;5106215;28;20213;-78
2021/12/23 00:32:18;;;;;;;27.43;13.60;;;2.80;70.40;;;;;;5113689;27;20201;-78
2021/12/23 00:34:46;;;;;;;29.67;12.97;;;2.80;70.10;;;;;;5105308;28;20842;-77
2021/12/23 00:37:17;;;;;;;27.60;14.40;;;2.80;69.90;;;;;;5102935;27;20268;-78
2021/12/23 00:39:46;;;;;;;26.40;13.90;;;2.80;69.90;;;;;;5111877;27;20192;-77
2021/12/23 00:42:14;;;;;;;24.20;11.90;;;2.80;69.90;;;;;;5101278;27;20696;-78
2021/12/23 00:44:46;;;;;;;24.07;12.87;;;2.80;70.00;;;;;;5101034;27;20225;-79
2021/12/23 00:47:15;;;;;;;23.63;11.07;;;2.80;70.00;;;;;;5105156;27;20663;-77
2021/12/23 00:49:45;;;;;;;21.70;10.47;;;2.80;70.10;;;;;;5109020;27;20189;-77
2021/12/23 00:52:17;;;;;;;25.63;12.30;;;2.80;70.00;;;;;;5111325;27;21183;-78
2021/12/23 00:54:45;;;;;;;25.10;10.93;;;2.80;69.60;;;;;;5109418;27;20440;-79
2021/12/23 00:57:13;;;;;;;22.70;10.47;;;2.80;69.70;;;;;;5110119;27;20224;-77
2021/12/23 00:59:42;;;;;;;20.20;9.60;;;2.90;69.70;;;;;;5092785;27;20196;-78
2021/12/23 01:02:12;;;;;;;19.20;8.80;;;2.80;69.60;;;;;;5112293;27;20196;-78
2021/12/23 01:04:40;;;;;;;20.20;9.37;;;2.90;69.20;;;;;;5105509;27;20271;-78
2021/12/23 01:07:10;;;;;;;18.77;8.07;;;2.80;67.80;;;;;;5101742;27;20190;-78
2021/12/23 01:09:50;;;;;;;17.17;8.87;;;2.90;68.00;;;;;;5108301;27;20190;-78
2021/12/23 01:12:23;;;;;;;16.37;8.27;;;2.90;68.00;;;;;;5112572;27;20194;-78
2021/12/23 01:14:57;;;;;;;15.37;8.13;;;2.90;67.60;;;;;;5108532;27;20181;-77
2021/12/23 01:17:46;;;;;;;14.23;7.03;;;2.90;67.30;;;;;;5111218;27;20217;-77
2021/12/23 01:20:14;;;;;;;16.20;8.07;;;2.90;67.00;;;;;;5105260;27;20193;-78
2021/12/23 01:22:44;;;;;;;15.20;6.73;;;3.00;67.00;;;;;;5094160;27;20209;-78
2021/12/23 01:25:12;;;;;;;14.60;7.40;;;3.00;66.00;;;;;;5103510;27;20201;-78
2021/12/23 01:27:41;;;;;;;15.97;6.93;;;3.00;66.40;;;;;;5107437;27;20223;-78
2021/12/23 01:30:10;;;;;;;14.17;7.40;;;3.00;66.60;;;;;;5092675;27;20197;-78
2021/12/23 01:32:38;;;;;;;14.37;7.60;;;3.10;66.60;;;;;;5116098;27;20188;-78
2021/12/23 01:35:08;;;;;;;15.03;7.90;;;3.10;65.90;;;;;;5110752;27;20204;-78
2021/12/23 01:37:36;;;;;;;17.80;7.87;;;3.00;65.80;;;;;;5096555;27;20308;-77
2021/12/23 01:40:08;;;;;;;16.80;7.90;;;3.00;64.60;;;;;;5102839;27;20857;-78
2021/12/23 01:42:37;;;;;;;17.50;9.67;;;3.00;64.50;;;;;;5106607;27;20190;-78
2021/12/23 01:45:10;;;;;;;18.23;8.23;;;2.90;63.80;;;;;;5092160;27;20212;-78
2021/12/23 01:47:39;;;;;;;18.20;8.00;;;2.90;63.60;;;;;;5100986;27;20181;-78
2021/12/23 01:50:09;;;;;;;16.00;8.97;;;2.80;62.90;;;;;;5115472;27;20710;-77
2021/12/23 01:52:38;;;;;;;17.57;8.33;;;2.80;63.20;;;;;;5108001;27;20216;-77
2021/12/23 01:55:12;;;;;;;19.03;8.70;;;2.80;63.00;;;;;;5107841;27;20185;-78
2021/12/23 01:57:40;;;;;;;18.80;8.47;;;2.70;63.10;;;;;;5099656;27;20206;-77
2021/12/23 02:00:13;;;;;;;18.10;8.70;;;2.70;62.90;;;;;;5101597;27;20189;-78
2021/12/23 02:02:42;;;;;;;20.53;9.37;;;2.70;63.20;;;;;;5116464;27;20216;-77
2021/12/23 02:05:12;;;;;;;19.87;9.40;;;2.70;63.00;;;;;;5104871;27;20292;-77
2021/12/23 02:07:40;;;;;;;16.73;8.93;;;2.60;63.10;;;;;;5102457;27;20197;-78
2021/12/23 02:10:10;;;;;;;15.57;9.00;;;2.60;63.10;;;;;;5110170;27;20795;-77
2021/12/23 02:12:41;;;;;;;17.97;8.73;;;2.60;63.10;;;;;;5110423;27;20179;-77
2021/12/23 02:15:10;;;;;;;20.13;9.00;;;2.60;63.30;;;;;;5119604;27;20280;-78
2021/12/23 02:17:40;;;;;;;19.97;8.50;;;2.50;63.40;;;;;;5102041;27;20189;-77
2021/12/23 02:20:12;;;;;;;19.50;9.00;;;2.60;63.70;;;;;;5102894;27;20729;-79
2021/12/23 02:22:41;;;;;;;16.27;8.27;;;2.50;63.70;;;;;;5091028;27;20184;-78
2021/12/23 02:25:11;;;;;;;18.07;8.60;;;2.60;64.00;;;;;;5101776;27;20193;-78
2021/12/23 02:27:41;;;;;;;14.40;8.33;;;2.60;64.10;;;;;;5109525;27;20184;-78
2021/12/23 02:30:12;;;;;;;16.50;9.40;;;2.60;64.50;;;;;;5104248;27;20193;-78
2021/12/23 02:32:41;;;;;;;20.30;9.23;;;2.60;64.80;;;;;;5111824;27;20180;-77
2021/12/23 02:35:15;;;;;;;20.47;9.00;;;2.70;65.00;;;;;;5108888;27;20200;-78
2021/12/23 02:37:44;;;;;;;20.30;8.87;;;2.70;65.20;;;;;;5102733;27;20553;-78
2021/12/23 02:40:23;;;;;;;19.43;9.10;;;2.70;65.20;;;;;;5104858;28;20195;-77
2021/12/23 02:42:52;;;;;;;20.47;8.80;;;2.80;65.50;;;;;;5120287;27;20801;-78
2021/12/23 02:45:20;;;;;;;19.27;8.90;;;2.90;65.40;;;;;;5113312;27;20232;-78
2021/12/23 02:47:49;;;;;;;18.03;9.07;;;2.90;65.10;;;;;;5110044;28;20195;-79
2021/12/23 02:50:19;;;;;;;16.03;8.47;;;2.90;64.80;;;;;;5105967;28;20610;-77
2021/12/23 02:52:49;;;;;;;20.23;9.00;;;3.00;64.90;;;;;;5106787;28;20196;-78
2021/12/23 02:55:19;;;;;;;18.50;8.63;;;3.00;65.00;;;;;;5110093;27;20207;-78
2021/12/23 02:57:47;;;;;;;16.73;8.60;;;3.00;65.20;;;;;;5116126;28;20194;-78
2021/12/23 03:00:16;;;;;;;18.93;10.33;;;3.10;65.40;;;;;;5115621;27;20197;-78
2021/12/23 03:02:45;;;;;;;21.87;9.80;;;3.10;65.30;;;;;;5095547;28;20194;-78
2021/12/23 03:05:13;;;;;;;21.23;10.20;;;3.10;65.40;;;;;;5097575;28;20223;-78
2021/12/23 03:07:43;;;;;;;18.50;9.50;;;3.10;65.50;;;;;;5120730;27;20208;-78
2021/12/23 03:10:12;;;;;;;23.07;10.00;;;3.20;65.70;;;;;;5111459;27;20204;-78
2021/12/23 03:12:40;;;;;;;20.60;9.87;;;3.10;65.80;;;;;;5093431;28;20195;-77
2021/12/23 03:15:09;;;;;;;20.77;10.10;;;3.20;65.80;;;;;;5099475;28;20187;-78
2021/12/23 03:17:38;;;;;;;20.63;9.43;;;3.20;65.60;;;;;;5096462;28;20229;-78
2021/12/23 03:20:07;;;;;;;16.70;8.83;;;3.20;65.50;;;;;;5095891;28;20249;-78
2021/12/23 03:22:36;;;;;;;22.48;11.05;;;3.20;65.50;;;;;;5109938;28;20446;-78
2021/12/23 03:25:07;;;;;;;19.67;10.10;;;3.20;65.80;;;;;;5112217;27;20189;-78
2021/12/23 03:27:35;;;;;;;19.10;9.47;;;3.20;65.90;;;;;;5109657;27;20189;-79
2021/12/23 03:30:05;;;;;;;19.13;9.47;;;3.30;66.00;;;;;;5111679;27;20191;-78
2021/12/23 03:32:34;;;;;;;20.33;9.30;;;3.40;65.80;;;;;;5117556;27;20189;-78
2021/12/23 03:35:02;;;;;;;22.63;10.33;;;3.40;65.70;;;;;;5111902;27;20275;-78
2021/12/23 03:37:31;;;;;;;19.27;9.50;;;3.50;65.70;;;;;;5112180;27;20189;-78
2021/12/23 03:39:59;;;;;;;21.60;10.90;;;3.50;65.50;;;;;;5107092;27;20234;-78
2021/12/23 03:42:29;;;;;;;23.57;10.07;;;3.50;65.70;;;;;;5107628;27;20232;-78
2021/12/23 03:44:57;;;;;;;24.10;9.97;;;3.50;65.70;;;;;;5099592;27;20222;-78
2021/12/23 03:47:26;;;;;;;21.43;10.43;;;3.50;65.80;;;;;;5116037;27;20199;-78
2021/12/23 03:49:54;;;;;;;21.97;10.00;;;3.60;65.70;;;;;;5101395;27;20287;-78
2021/12/23 03:52:23;;;;;;;17.80;9.87;;;3.60;65.80;;;;;;5109286;27;20349;-78
2021/12/23 03:54:51;;;;;;;22.27;10.40;;;3.60;65.90;;;;;;5124877;27;20197;-78
2021/12/23 03:57:20;;;;;;;26.40;11.60;;;3.60;65.90;;;;;;5113257;27;20648;-78
2021/12/23 03:59:49;;;;;;;20.73;10.03;;;3.60;66.00;;;;;;5102478;27;20244;-78
2021/12/23 04:02:18;;;;;;;16.03;9.73;;;3.60;65.80;;;;;;5108363;27;20200;-78
2021/12/23 04:04:46;;;;;;;20.83;10.73;;;3.60;65.80;;;;;;5104938;28;20224;-78
2021/12/23 04:07:16;;;;;;;22.10;11.13;;;3.60;65.70;;;;;;5106692;27;20201;-79
2021/12/23 04:09:44;;;;;;;22.87;11.17;;;3.60;65.70;;;;;;5120579;27;20186;-78
2021/12/23 04:12:13;;;;;;;22.77;11.90;;;3.70;66.00;;;;;;5098558;27;20182;-78
2021/12/23 04:14:41;;;;;;;23.00;12.33;;;3.70;66.00;;;;;;5098661;28;20187;-78
2021/12/23 04:17:11;;;;;;;25.23;12.23;;;3.70;65.90;;;;;;5113399;27;20186;-78
2021/12/23 04:19:39;;;;;;;30.10;13.10;;;3.70;65.90;;;;;;5096625;27;20209;-78
2021/12/23 04:22:09;;;;;;;25.70;12.87;;;3.70;66.00;;;;;;5102884;27;20830;-78
2021/12/23 04:24:37;;;;;;;25.03;12.27;;;3.70;66.00;;;;;;5112921;27;20307;-79
2021/12/23 04:27:06;;;;;;;24.80;13.17;;;3.70;65.90;;;;;;5110466;27;20190;-78
2021/12/23 04:29:34;;;;;;;24.17;12.37;;;3.70;65.80;;;;;;5107411;27;20213;-78
2021/12/23 04:32:03;;;;;;;28.37;12.67;;;3.70;65.90;;;;;;5111485;27;20198;-78
2021/12/23 04:34:33;;;;;;;28.73;12.97;;;3.70;66.00;;;;;;5112971;27;20198;-78
2021/12/23 04:37:01;;;;;;;25.77;13.63;;;3.70;65.90;;;;;;5105972;27;20211;-78
2021/12/23 04:39:29;;;;;;;24.57;12.50;;;3.70;65.80;;;;;;5112738;27;20229;-77
2021/12/23 04:41:58;;;;;;;25.90;12.43;;;3.70;66.00;;;;;;5104250;27;20732;-76
2021/12/23 04:44:26;;;;;;;24.43;12.23;;;3.70;65.80;;;;;;5108146;27;20529;-77
2021/12/23 04:46:54;;;;;;;23.53;11.00;;;3.60;65.80;;;;;;5117604;27;20776;-76
2021/12/23 04:49:23;;;;;;;25.00;11.27;;;3.60;65.70;;;;;;5102296;27;20190;-78
2021/12/23 04:51:53;;;;;;;22.03;11.10;;;3.60;65.50;;;;;;5112725;27;20968;-78
2021/12/23 04:54:21;;;;;;;19.77;10.50;;;3.60;65.50;;;;;;5110133;27;20194;-78
2021/12/23 04:56:49;;;;;;;23.23;11.27;;;3.60;65.50;;;;;;5115062;27;20200;-76
2021/12/23 04:59:18;;;;;;;24.80;10.43;;;3.50;65.30;;;;;;5106841;27;20217;-76
2021/12/23 05:01:46;;;;;;;24.20;10.50;;;3.50;65.30;;;;;;5104718;27;20203;-78
2021/12/23 05:04:15;;;;;;;23.73;10.87;;;3.50;65.40;;;;;;5104589;27;20203;-76
2021/12/23 05:06:43;;;;;;;21.33;9.57;;;3.50;65.40;;;;;;5114424;27;20198;-76
2021/12/23 05:09:13;;;;;;;28.67;11.80;;;3.50;65.50;;;;;;5103669;27;20198;-77
2021/12/23 05:11:41;;;;;;;20.67;10.30;;;3.50;65.40;;;;;;5114316;27;20207;-77
2021/12/23 05:14:10;;;;;;;20.87;10.67;;;3.50;65.40;;;;;;5111082;27;20218;-77
2021/12/23 05:16:38;;;;;;;23.90;10.67;;;3.50;65.40;;;;;;5120188;27;20191;-77
2021/12/23 05:19:07;;;;;;;22.23;10.03;;;3.50;65.50;;;;;;5097578;28;20208;-77
2021/12/23 05:21:36;;;;;;;20.77;9.87;;;3.40;65.50;;;;;;5104659;27;20198;-77
2021/12/23 05:24:05;;;;;;;18.90;9.90;;;3.40;65.20;;;;;;5111156;27;20190;-77
2021/12/23 05:26:35;;;;;;;27.63;10.73;;;3.40;65.20;;;;;;5107281;27;20197;-76
2021/12/23 05:29:03;;;;;;;20.27;11.03;;;3.40;65.20;;;;;;5106381;27;20195;-77
2021/12/23 05:31:33;;;;;;;20.33;10.07;;;3.40;65.10;;;;;;5096134;27;20197;-77
2021/12/23 05:34:01;;;;;;;19.87;9.60;;;3.40;65.00;;;;;;5108053;27;21435;-76
2021/12/23 05:36:29;;;;;;;17.50;8.93;;;3.40;65.10;;;;;;5105032;27;20210;-77
2021/12/23 05:38:58;;;;;;;24.20;9.33;;;3.40;65.20;;;;;;5108600;27;20189;-77
2021/12/23 05:41:27;;;;;;;24.70;8.77;;;3.40;65.20;;;;;;5113314;27;20253;-77
2021/12/23 05:43:58;;;;;;;19.77;9.03;;;3.40;65.20;;;;;;5108642;27;20259;-77
2021/12/23 05:46:27;;;;;;;20.93;10.00;;;3.30;65.20;;;;;;5106629;27;20200;-76
2021/12/23 05:48:55;;;;;;;20.03;9.47;;;3.30;65.10;;;;;;5098153;27;20197;-77
2021/12/23 05:51:23;;;;;;;19.40;9.13;;;3.30;65.20;;;;;;5098106;27;20565;-77
2021/12/23 05:53:52;;;;;;;19.93;10.40;;;3.30;65.30;;;;;;5108975;27;20277;-77
2021/12/23 05:56:20;;;;;;;19.17;9.63;;;3.30;65.40;;;;;;5101192;27;20185;-77
2021/12/23 05:58:49;;;;;;;23.63;9.40;;;3.30;65.40;;;;;;5102812;27;20185;-77
2021/12/23 06:01:19;;;;;;;19.00;9.70;;;3.30;65.40;;;;;;5097375;28;20234;-76
2021/12/23 06:03:47;;;;;;;24.60;10.20;;;3.30;65.50;;;;;;5096425;28;20201;-76
2021/12/23 06:06:16;;;;;;;19.60;9.60;;;3.30;65.80;;;;;;5098593;27;20414;-77
2021/12/23 06:08:45;;;;;;;21.03;9.60;;;3.30;65.80;;;;;;5102153;28;20652;-77
2021/12/23 06:11:13;;;;;;;17.77;9.73;;;3.30;65.70;;;;;;5104615;27;20208;-77
2021/12/23 06:13:41;;;;;;;23.37;11.10;;;3.40;65.80;;;;;;5096599;27;20195;-76
2021/12/23 06:16:10;;;;;;;23.37;10.87;;;3.40;66.00;;;;;;5099261;27;20202;-77
2021/12/23 06:18:40;;;;;;;26.73;11.10;;;3.40;65.50;;;;;;5092367;27;20610;-77
2021/12/23 06:21:08;;;;;;;25.13;11.37;;;3.40;65.80;;;;;;5100883;28;20227;-77
2021/12/23 06:23:37;;;;;;;25.83;11.23;;;3.40;65.80;;;;;;5101718;28;20473;-77
2021/12/23 06:26:05;;;;;;;22.53;11.27;;;3.40;65.70;;;;;;5101418;27;20188;-76
2021/12/23 06:28:33;;;;;;;21.63;10.17;;;3.40;65.50;;;;;;5123597;27;20190;-76
2021/12/23 06:31:02;;;;;;;23.30;10.57;;;3.50;65.50;;;;;;5107801;27;20218;-76
2021/12/23 06:33:30;;;;;;;22.33;10.27;;;3.50;65.60;;;;;;5105012;27;20197;-76
2021/12/23 06:36:00;;;;;;;22.63;11.10;;;3.50;65.50;;;;;;5101440;28;20204;-77
2021/12/23 06:38:28;;;;;;;30.10;11.77;;;3.50;65.50;;;;;;5097500;28;20188;-77
2021/12/23 06:40:57;;;;;;;25.13;13.40;;;3.50;65.50;;;;;;5100162;28;21206;-77
2021/12/23 06:43:25;;;;;;;22.83;11.67;;;3.60;66.00;;;;;;5115689;28;20252;-79
2021/12/23 06:45:54;;;;;;;24.50;11.77;;;3.60;66.10;;;;;;5112473;27;20705;-78
2021/12/23 06:48:23;;;;;;;25.30;12.00;;;3.60;66.10;;;;;;5115090;27;20683;-77
2021/12/23 06:50:54;;;;;;;25.75;11.98;;;3.60;66.00;;;;;;5102981;28;20427;-77
2021/12/23 06:53:24;;;;;;;25.73;13.57;;;3.70;65.80;;;;;;5099225;28;20199;-77
2021/12/23 06:55:54;;;;;;;21.97;12.37;;;3.70;65.80;;;;;;5112850;28;20188;-78
2021/12/23 06:58:24;;;;;;;29.77;11.37;;;3.70;65.80;;;;;;5117814;28;20221;-76
2021/12/23 07:00:53;;;;;;;24.27;12.00;;;3.80;65.80;;;;;;5106309;28;20302;-77
2021/12/23 07:03:24;;;;;;;24.03;11.53;;;3.80;65.70;;;;;;5102442;28;20185;-77
2021/12/23 07:06:03;;;;;;;23.53;11.87;;;3.90;65.50;;;;;;5105726;27;20279;-77
2021/12/23 07:08:35;;;;;;;22.63;11.33;;;3.90;65.60;;;;;;5107780;27;20192;-77
2021/12/23 07:11:04;;;;;;;20.50;9.47;;;4.00;65.20;;;;;;5119864;27;20175;-76
2021/12/23 07:13:33;;;;;;;20.83;9.87;;;4.00;64.70;;;;;;5127740;27;20194;-78
2021/12/23 07:16:02;;;;;;;21.03;9.77;;;4.00;63.90;;;;;;5107201;27;20196;-77
2021/12/23 07:18:30;;;;;;;21.20;11.35;;;4.10;64.40;;;;;;5107607;27;20475;-77
2021/12/23 07:20:59;;;;;;;18.57;9.33;;;4.10;64.60;;;;;;5105436;28;20231;-77
2021/12/23 07:23:27;;;;;;;18.27;9.73;;;4.10;64.40;;;;;;5109584;27;20227;-77
2021/12/23 07:25:57;;;;;;;22.63;8.93;;;4.20;63.90;;;;;;5107539;28;20204;-77
2021/12/23 07:28:29;;;;;;;27.00;9.43;;;4.20;64.00;;;;;;5102588;28;20830;-78
2021/12/23 07:30:58;;;;;;;17.03;8.50;;;4.20;63.80;;;;;;5108133;28;20196;-77
2021/12/23 07:33:26;;;;;;;23.87;10.07;;;4.30;63.30;;;;;;5107375;28;20240;-78
2021/12/23 07:35:54;;;;;;;19.50;9.77;;;4.30;63.10;;;;;;5107551;28;20248;-77
2021/12/23 07:38:23;;;;;;;18.50;9.57;;;4.30;63.50;;;;;;5104471;28;20189;-77
2021/12/23 07:40:51;;;;;;;15.03;7.87;;;4.30;63.80;;;;;;5103426;28;20229;-77
2021/12/23 07:43:44;;;;;;;21.60;8.87;;;4.40;63.20;;;;;;5118755;27;20192;-77
2021/12/23 07:46:12;;;;;;;18.00;9.43;;;4.40;63.10;;;;;;5077700;28;20197;-77
2021/12/23 07:48:41;;;;;;;21.40;8.67;;;4.40;63.10;;;;;;5069654;28;20268;-76
2021/12/23 07:51:09;;;;;;;20.03;10.03;;;4.50;63.00;;;;;;5064375;28;20202;-76
2021/12/23 07:53:38;;;;;;;18.57;10.00;;;4.50;62.40;;;;;;5080535;28;20193;-76
2021/12/23 07:56:06;;;;;;;27.00;9.70;;;4.50;62.80;;;;;;5064895;28;20198;-76
2021/12/23 07:58:36;;;;;;;19.60;9.00;;;4.60;63.00;;;;;;5066027;28;20191;-77
2021/12/23 08:01:04;;;;;;;20.40;9.27;;;4.60;62.90;;;;;;5069673;28;20239;-77
2021/12/23 08:03:33;;;;;;;16.03;8.10;;;4.60;61.70;;;;;;5066706;28;20309;-77
2021/12/23 08:06:02;;;;;;;14.33;7.77;;;4.60;61.30;;;;;;5069460;28;20206;-77
2021/12/23 08:08:31;;;;;;;22.47;8.40;;;4.60;60.90;;;;;;5062845;28;20194;-76
2021/12/23 08:10:59;;;;;;;20.63;8.60;;;4.70;61.20;;;;;;5068076;28;20202;-77
2021/12/23 08:13:27;;;;;;;18.33;8.17;;;4.70;61.50;;;;;;5062664;28;20530;-77
2021/12/23 08:16:00;;;;;;;20.47;7.50;;;4.80;61.10;;;;;;5063970;28;20637;-77
2021/12/23 08:18:29;;;;;;;15.60;7.33;;;4.80;61.00;;;;;;5065809;28;20174;-78
2021/12/23 08:20:57;;;;;;;15.20;6.77;;;4.90;60.80;;;;;;5065078;28;20200;-77
2021/12/23 08:23:26;;;;;;;15.83;6.73;;;4.90;60.00;;;;;;5063359;28;20190;-78
2021/12/23 08:25:55;;;;;;;13.83;7.33;;;4.90;59.00;;;;;;5064164;28;20259;-78
2021/12/23 08:28:28;;;;;;;14.57;7.17;;;5.00;59.20;;;;;;5064858;28;20193;-80
2021/12/23 08:30:59;;;;;;;15.77;6.73;;;5.00;59.00;;;;;;5065631;28;20190;-77
2021/12/23 08:33:30;;;;;;;17.67;7.17;;;5.10;58.50;;;;;;5065141;28;20200;-79
2021/12/23 08:35:59;;;;;;;12.57;6.10;;;5.20;58.10;;;;;;5060798;28;20199;-77
2021/12/23 08:38:28;;;;;;;15.10;7.00;;;5.20;57.20;;;;;;5063960;28;20193;-77
2021/12/23 08:40:56;;;;;;;14.90;6.27;;;5.20;56.90;;;;;;5063326;28;20197;-77
2021/12/23 08:43:25;;;;;;;13.80;6.90;;;5.30;57.00;;;;;;5065909;28;20191;-78
2021/12/23 08:45:53;;;;;;;13.70;6.87;;;5.30;57.80;;;;;;5104494;28;20227;-78
2021/12/23 08:48:23;;;;;;;16.70;6.03;;;5.30;56.50;;;;;;5105484;28;20576;-78
2021/12/23 08:50:52;;;;;;;16.53;6.93;;;5.30;56.00;;;;;;5121146;27;20192;-80
2021/12/23 08:53:20;;;;;;;9.53;5.37;;;5.40;56.40;;;;;;5126508;27;20200;-79
2021/12/23 08:55:52;;;;;;;15.43;6.43;;;5.40;56.20;;;;;;5113665;27;20192;-79
2021/12/23 08:58:21;;;;;;;18.63;7.20;;;5.40;55.80;;;;;;5067420;28;20699;-78
2021/12/23 09:00:49;;;;;;;13.17;6.77;;;5.40;55.50;;;;;;5104874;28;20600;-78
2021/12/23 09:03:18;;;;;;;16.07;6.67;;;5.40;55.90;;;;;;5103110;27;20304;-78
2021/12/23 09:05:48;;;;;;;13.27;5.73;;;5.40;55.70;;;;;;5104347;27;20190;-79
2021/12/23 09:08:16;;;;;;;18.60;7.37;;;5.40;55.10;;;;;;5103740;27;20181;-79
2021/12/23 09:10:45;;;;;;;20.17;7.07;;;5.30;54.90;;;;;;5104280;28;20196;-78
2021/12/23 09:13:13;;;;;;;13.47;6.07;;;5.30;54.70;;;;;;5106420;28;20200;-79
2021/12/23 09:15:42;;;;;;;14.40;6.47;;;5.30;55.20;;;;;;5103441;28;20900;-79
2021/12/23 09:18:10;;;;;;;12.77;6.47;;;5.30;55.20;;;;;;5103127;28;20182;-80
2021/12/23 09:20:39;;;;;;;21.20;8.27;;;5.30;55.60;;;;;;5102257;28;20743;-78
2021/12/23 09:23:09;;;;;;;17.93;7.93;;;5.30;56.00;;;;;;5103483;28;20196;-79
2021/12/23 09:25:38;;;;;;;18.37;9.00;;;5.30;56.40;;;;;;5103765;27;20181;-79
2021/12/23 09:28:25;;;;;;;16.47;8.10;;;5.30;56.80;;;;;;5104319;28;20192;-79
2021/12/23 09:33:41;;;;;;;14.77;7.37;;;5.40;57.10;;;;;;5119005;27;20223;-78
2021/12/23 09:36:10;;;;;;;15.07;7.20;;;5.40;56.70;;;;;;5105775;27;20601;-78
2021/12/23 09:38:40;;;;;;;18.10;8.30;;;5.40;55.80;;;;;;5100697;28;20189;-78
2021/12/23 09:41:12;;;;;;;16.60;7.80;;;5.40;55.80;;;;;;5105431;28;20197;-78
2021/12/23 09:43:42;;;;;;;18.97;8.43;;;5.40;55.80;;;;;;5104091;27;20214;-79
2021/12/23 09:46:13;;;;;;;16.77;7.83;;;5.50;56.40;;;;;;5103941;28;20195;-78
2021/12/23 09:48:43;;;;;;;11.93;6.33;;;5.50;56.30;;;;;;5098684;27;20184;-77
2021/12/23 09:51:13;;;;;;;14.57;6.80;;;5.50;55.10;;;;;;5107542;27;20199;-78
2021/12/23 09:53:44;;;;;;;16.47;7.83;;;5.60;55.80;;;;;;5125520;27;20188;-78
2021/12/23 09:56:13;;;;;;;25.53;9.70;;;5.70;56.40;;;;;;5107937;27;20186;-78
2021/12/23 09:58:42;;;;;;;17.73;8.70;;;5.70;56.90;;;;;;5105727;27;20227;-77
2021/12/23 10:01:10;;;;;;;15.47;8.03;;;5.80;56.60;;;;;;5106851;27;20193;-77
2021/12/23 10:03:39;;;;;;;16.40;8.07;;;5.80;56.20;;;;;;5103719;28;20224;-78
2021/12/23 10:06:08;;;;;;;17.77;9.13;;;5.90;56.50;;;;;;5104516;28;20198;-78
2021/12/23 10:08:39;;;;;;;21.23;9.47;;;5.90;56.60;;;;;;5103234;28;20191;-78
2021/12/23 10:11:17;;;;;;;18.90;9.30;;;6.00;56.90;;;;;;5104649;28;20634;-78
2021/12/23 10:31:11;;;;;;;21.60;10.70;;;6.30;57.50;;;;;;5102505;28;20193;-77
2021/12/23 10:37:03;;;;;;;20.43;10.67;;;6.30;57.50;;;;;;5101735;28;20703;-77
2021/12/23 10:39:35;;;;;;;19.73;11.03;;;6.40;57.80;;;;;;5058581;28;20206;-77
2021/12/23 10:42:10;;;;;;;19.13;10.10;;;6.50;57.80;;;;;;5090678;28;20220;-77
2021/12/23 10:44:40;;;;;;;24.13;11.17;;;6.50;57.60;;;;;;5103613;28;20217;-78
2021/12/23 10:47:11;;;;;;;20.00;10.60;;;6.50;57.70;;;;;;5103420;28;20179;-77
2021/12/23 10:49:43;;;;;;;21.60;11.50;;;6.60;57.60;;;;;;5103025;28;20193;-77
2021/12/23 10:52:16;;;;;;;26.43;11.73;;;6.60;57.50;;;;;;5103772;28;20190;-76
2021/12/23 11:00:27;;;;;;;20.03;11.20;;;6.70;57.50;;;;;;5099799;28;20191;-76
2021/12/23 11:03:07;;;;;;;20.37;11.30;;;6.70;57.70;;;;;;5103827;28;20212;-77
2021/12/23 11:05:41;;;;;;;20.03;11.20;;;6.70;57.70;;;;;;5102825;28;20190;-77
2021/12/23 11:08:20;;;;;;;22.03;10.57;;;6.70;57.50;;;;;;5103515;28;20196;-76
2021/12/23 11:28:05;;;;;;;17.67;9.27;;;6.60;57.30;;;;;;5102034;28;20176;-77
2021/12/23 11:36:35;;;;;;;18.27;8.80;;;6.50;56.10;;;;;;5103829;28;20188;-77
2021/12/23 11:39:25;;;;;;;18.73;9.00;;;6.50;56.60;;;;;;5103679;28;20567;-77
2021/12/23 11:42:02;;;;;;;20.47;9.20;;;6.50;56.80;;;;;;5102341;28;20193;-77
2021/12/23 11:44:33;;;;;;;16.70;9.17;;;6.50;57.10;;;;;;5105607;28;20221;-77
2021/12/23 11:47:08;;;;;;;16.67;9.43;;;6.50;57.00;;;;;;5103605;27;20270;-77
2021/12/23 11:49:40;;;;;;;15.80;9.37;;;6.40;57.10;;;;;;5110828;27;20211;-77
2021/12/23 11:52:09;;;;;;;17.43;8.97;;;6.40;57.20;;;;;;5107721;27;20714;-77
2021/12/23 11:54:39;;;;;;;19.87;10.07;;;6.50;57.50;;;;;;5108532;27;20195;-77
2021/12/23 11:57:11;;;;;;;21.37;10.73;;;6.50;57.60;;;;;;5106237;27;20185;-78
2021/12/23 11:59:42;;;;;;;18.80;10.27;;;6.50;57.80;;;;;;5108246;28;20181;-77
2021/12/23 12:02:16;;;;;;;18.80;9.83;;;6.50;57.90;;;;;;5105880;27;20185;-78
2021/12/23 12:04:47;;;;;;;22.40;9.93;;;6.50;58.10;;;;;;5104975;28;20202;-77
2021/12/23 12:07:19;;;;;;;16.90;9.23;;;6.60;58.10;;;;;;5104913;28;20189;-78
2021/12/23 12:09:59;;;;;;;23.97;9.97;;;6.60;58.30;;;;;;5105491;28;20188;-77
2021/12/23 12:12:28;;;;;;;24.20;12.00;;;6.60;58.30;;;;;;5105235;28;20427;-77
2021/12/23 12:14:57;;;;;;;25.30;11.80;;;6.60;58.50;;;;;;5106372;28;20197;-77
2021/12/23 12:17:35;;;;;;;28.03;12.53;;;6.60;58.70;;;;;;5105735;28;20196;-77
2021/12/23 12:20:22;;;;;;;25.57;13.00;;;6.60;59.00;;;;;;5106903;28;20177;-77
2021/12/23 12:22:57;;;;;;;27.83;11.97;;;6.60;59.30;;;;;;5105067;28;20179;-77
2021/12/23 12:25:49;;;;;;;26.42;15.02;;;6.60;59.50;;;;;;5103680;28;20436;-77
2021/12/23 12:28:22;;;;;;;22.53;11.53;;;6.60;59.90;;;;;;5106498;28;20181;-77
2021/12/23 12:30:53;;;;;;;21.70;11.90;;;6.60;59.70;;;;;;5106465;28;20209;-78
2021/12/23 12:34:07;;;;;;;22.67;12.30;;;6.50;59.80;;;;;;5106404;28;20183;-77
2021/12/23 12:36:45;;;;;;;29.02;13.88;;;6.50;59.90;;;;;;5077923;28;20420;-78
2021/12/23 12:39:18;;;;;;;33.07;15.27;;;6.40;60.00;;;;;;5104627;28;20596;-79
2021/12/23 12:41:47;;;;;;;23.63;11.10;;;6.40;60.20;;;;;;5104110;28;20204;-77
2021/12/23 12:44:22;;;;;;;18.60;9.93;;;6.40;60.10;;;;;;5104841;28;20235;-78
2021/12/23 12:47:02;;;;;;;21.23;11.03;;;6.30;60.00;;;;;;5102887;28;20192;-78
2021/12/23 12:49:36;;;;;;;23.97;11.13;;;6.40;60.00;;;;;;5105168;28;20183;-78
2021/12/23 12:52:13;;;;;;;21.10;11.33;;;6.40;60.00;;;;;;5104669;28;20186;-78
2021/12/23 12:54:43;;;;;;;28.27;11.17;;;6.50;60.20;;;;;;5104302;27;20225;-77
2021/12/23 12:57:12;;;;;;;23.83;11.90;;;6.50;60.30;;;;;;5095282;27;20202;-78
2021/12/23 12:59:44;;;;;;;21.43;12.20;;;6.50;60.50;;;;;;5116563;27;20603;-78
2021/12/23 13:02:29;;;;;;;22.67;11.23;;;6.50;60.70;;;;;;5095928;28;20200;-78
2021/12/23 13:05:03;;;;;;;20.27;10.83;;;6.60;60.70;;;;;;5104846;28;20210;-77
2021/12/23 13:07:39;;;;;;;19.80;11.30;;;6.70;61.00;;;;;;5108805;27;20273;-77
2021/12/23 13:10:13;;;;;;;24.83;12.17;;;6.80;61.40;;;;;;5100545;27;20196;-77
2021/12/23 13:12:49;;;;;;;20.50;11.97;;;6.90;61.60;;;;;;5104262;28;20190;-77
2021/12/23 13:15:21;;;;;;;27.37;13.37;;;7.00;61.60;;;;;;5095269;28;20269;-78
2021/12/23 13:18:00;;;;;;;20.97;12.87;;;7.00;61.00;;;;;;5108544;27;20184;-77
2021/12/23 13:20:35;;;;;;;25.63;12.03;;;7.00;60.90;;;;;;5097543;28;20187;-77
2021/12/23 13:23:11;;;;;;;24.27;11.87;;;7.00;60.50;;;;;;5106978;27;20283;-77
2021/12/23 13:25:51;;;;;;;23.33;11.83;;;7.10;60.20;;;;;;5114878;27;20187;-77
2021/12/23 13:28:23;;;;;;;22.17;11.73;;;7.30;59.90;;;;;;5097738;27;20185;-77
2021/12/23 13:30:51;;;;;;;24.33;12.90;;;8.00;59.00;;;;;;5101019;28;20224;-77
2021/12/23 13:33:20;;;;;;;22.60;11.83;;;8.70;58.00;;;;;;5104276;27;20216;-77
2021/12/23 13:35:49;;;;;;;20.83;11.23;;;10.20;56.10;;;;;;5104957;27;20189;-77
2021/12/23 13:38:39;;;;;;;21.20;12.60;;;10.60;54.70;;;;;;5097176;28;20197;-78
2021/12/23 13:41:13;;;;;;;22.73;12.90;;;10.60;55.00;;;;;;5100914;27;20192;-78
2021/12/23 13:43:42;;;;;;;20.53;11.70;;;11.10;54.00;;;;;;5101198;28;20205;-78
2021/12/23 13:46:10;;;;;;;19.97;11.37;;;11.40;53.70;;;;;;5103001;28;20200;-77
2021/12/23 13:48:50;;;;;;;21.60;12.50;;;11.10;53.50;;;;;;5102610;28;20217;-78
2021/12/23 13:51:21;;;;;;;21.23;12.37;;;11.40;54.20;;;;;;5101825;27;20275;-78
2021/12/23 13:54:10;;;;;;;20.40;12.10;;;12.00;53.30;;;;;;5102761;28;20261;-78